Time;durP1;ratioP1;P1;durP2;ratioP2;P2;SDS_P1;SDS_P2;PMS_P1;PMS_P2;Temp;Humidity;BMP_temperature;BMP_pressure;BME280_temperature;BME280_humidity;BME280_pressure;Samples;Min_cycle;Max_cycle;Signal;HPM_P1;HPM_P2
2023/05/25 00:01:43;;;;;;;7.95;3.58;;;;;;;20.52;80.59;94592.19;5071549;28;20202;-45
2023/05/25 00:04:10;;;;;;;4.32;3.95;;;;;;;20.71;80.03;94585.38;5071638;28;20206;-44
2023/05/25 00:06:40;;;;;;;7.47;4.50;;;;;;;20.80;77.04;94594.53;5071430;28;20183;-45
2023/05/25 00:09:07;;;;;;;7.13;4.10;;;;;;;20.78;74.64;94593.97;5069594;28;20710;-45
2023/05/25 00:11:35;;;;;;;4.45;4.05;;;;;;;20.73;73.05;94598.19;5069539;28;20268;-45
2023/05/25 00:14:01;;;;;;;6.03;4.50;;;;;;;20.67;72.04;94596.38;5069603;28;20191;-44
2023/05/25 00:16:28;;;;;;;4.45;4.05;;;;;;;20.60;71.01;94598.19;5069160;28;20197;-47
2023/05/25 00:18:56;;;;;;;9.30;4.95;;;;;;;20.51;70.23;94606.19;5069526;28;20197;-45
2023/05/25 00:21:23;;;;;;;5.43;3.63;;;;;;;20.43;69.70;94603.78;5069749;28;20186;-46
2023/05/25 00:23:50;;;;;;;6.60;4.10;;;;;;;20.35;69.19;94598.78;5069676;28;20199;-43
2023/05/25 00:26:16;;;;;;;5.15;4.05;;;;;;;20.28;68.48;94601.34;5069486;28;20213;-44
2023/05/25 00:28:44;;;;;;;5.00;4.40;;;;;;;20.20;68.04;94595.56;5069330;28;20237;-47
2023/05/25 00:31:11;;;;;;;6.43;4.17;;;;;;;20.10;67.65;94600.34;5069768;28;20216;-43
2023/05/25 00:33:38;;;;;;;5.97;4.23;;;;;;;19.86;67.34;94570.56;5069273;28;20225;-45
2023/05/25 00:36:07;;;;;;;4.43;4.03;;;;;;;19.98;67.02;94598.34;5069441;28;20186;-45
2023/05/25 00:38:34;;;;;;;5.73;4.63;;;;;;;19.92;66.81;94601.75;5069219;28;20182;-45
2023/05/25 00:41:01;;;;;;;9.10;4.43;;;;;;;19.87;66.55;94608.53;5069461;28;20198;-45
2023/05/25 00:43:27;;;;;;;5.50;4.93;;;;;;;19.66;66.21;94588.72;5069305;28;20182;-44
2023/05/25 00:45:56;;;;;;;6.47;4.60;;;;;;;19.72;66.07;94604.28;5069446;28;20191;-44
2023/05/25 00:48:23;;;;;;;6.33;4.70;;;;;;;19.69;65.82;94609.88;5068950;28;20225;-45
2023/05/25 00:50:56;;;;;;;8.37;4.60;;;;;;;19.64;65.75;94604.44;5069172;28;20840;-46
2023/05/25 00:53:23;;;;;;;4.77;4.27;;;;;;;19.57;65.62;94600.25;5069191;28;20289;-45
2023/05/25 00:55:57;;;;;;;8.17;4.60;;;;;;;19.54;65.54;94604.81;5069119;28;20182;-45
2023/05/25 00:58:27;;;;;;;9.33;5.47;;;;;;;19.49;65.30;94611.56;5071609;28;20198;-45
2023/05/25 01:00:58;;;;;;;7.37;4.93;;;;;;;19.40;65.10;94608.34;5073382;28;20194;-45
2023/05/25 01:03:28;;;;;;;8.83;5.57;;;;;;;19.38;64.81;94615.50;5075955;28;20187;-46
2023/05/25 01:05:57;;;;;;;7.10;5.00;;;;;;;19.37;65.00;94616.50;5075342;28;20190;-45
2023/05/25 01:08:25;;;;;;;6.00;5.20;;;;;;;19.10;64.88;94594.06;5074146;28;20646;-43
2023/05/25 01:10:53;;;;;;;5.73;4.10;;;;;;;19.27;64.84;94626.44;5073115;28;20226;-45
2023/05/25 01:13:20;;;;;;;8.33;4.97;;;;;;;19.23;64.70;94625.25;5073112;28;20239;-44
2023/05/25 01:15:47;;;;;;;5.07;4.53;;;;;;;19.22;64.68;94627.03;5072395;28;20190;-44
2023/05/25 01:18:17;;;;;;;7.53;5.00;;;;;;;19.16;64.53;94627.78;5075360;28;20190;-46
2023/05/25 01:21:00;;;;;;;5.13;4.27;;;;;;;19.00;64.47;94600.41;5079883;28;20190;-45
2023/05/25 01:23:33;;;;;;;8.23;5.33;;;;;;;19.11;64.22;94619.00;5072780;28;20225;-43
2023/05/25 01:26:03;;;;;;;5.90;4.77;;;;;;;19.07;64.48;94617.78;5072953;28;20205;-46
2023/05/25 01:28:34;;;;;;;5.13;4.63;;;;;;;19.03;64.35;94612.16;5071672;28;20225;-43
2023/05/25 01:31:03;;;;;;;7.00;5.27;;;;;;;19.00;64.28;94605.59;5072373;28;20226;-45
2023/05/25 01:33:32;;;;;;;8.77;5.07;;;;;;;18.97;64.21;94610.34;5072692;28;20187;-44
2023/05/25 01:36:01;;;;;;;6.27;4.60;;;;;;;18.94;64.12;94603.75;5072453;28;20202;-45
2023/05/25 01:38:27;;;;;;;5.70;4.97;;;;;;;18.91;64.25;94604.16;5072316;28;20565;-46
2023/05/25 01:40:54;;;;;;;8.70;5.13;;;;;;;18.88;64.06;94599.34;5072394;28;20695;-45
2023/05/25 01:43:22;;;;;;;6.63;5.07;;;;;;;18.82;64.10;94597.50;5072221;28;20194;-47
2023/05/25 01:45:50;;;;;;;5.43;4.83;;;;;;;18.79;64.02;94583.16;5072202;28;20304;-45
2023/05/25 01:48:25;;;;;;;5.83;5.17;;;;;;;18.73;63.99;94573.53;5072114;28;20194;-47
2023/05/25 01:50:57;;;;;;;6.53;4.50;;;;;;;18.73;64.15;94581.31;5071935;28;20680;-46
2023/05/25 01:53:30;;;;;;;5.03;4.43;;;;;;;18.74;63.97;94587.31;5072444;28;20186;-44
2023/05/25 01:56:00;;;;;;;5.93;5.23;;;;;;;18.71;63.90;94580.72;5071847;28;20191;-44
2023/05/25 01:58:31;;;;;;;6.87;4.90;;;;;;;18.69;63.78;94584.44;5072468;28;20627;-46
2023/05/25 02:00:59;;;;;;;5.30;4.80;;;;;;;18.67;63.86;94587.22;5074557;28;20194;-43
2023/05/25 02:03:26;;;;;;;4.87;4.37;;;;;;;18.65;63.80;94588.38;5079570;28;20183;-44
2023/05/25 02:05:53;;;;;;;5.27;4.77;;;;;;;18.62;63.70;94592.19;5071661;28;20191;-45
2023/05/25 02:08:20;;;;;;;6.37;5.10;;;;;;;18.60;63.75;94598.53;5071671;28;20187;-44
2023/05/25 02:10:49;;;;;;;5.60;4.73;;;;;;;18.59;63.70;94600.31;5071349;28;20324;-45
2023/05/25 02:13:15;;;;;;;6.23;4.60;;;;;;;18.56;63.81;94600.69;5071817;28;20677;-45
2023/05/25 02:15:42;;;;;;;6.00;4.60;;;;;;;18.53;63.77;94611.44;5070820;28;20201;-45
2023/05/25 02:18:09;;;;;;;5.27;4.43;;;;;;;18.49;63.82;94616.19;5071654;28;20194;-45
2023/05/25 02:20:36;;;;;;;7.27;4.87;;;;;;;18.49;63.68;94613.59;5071326;28;20190;-45
2023/05/25 02:23:03;;;;;;;4.63;4.13;;;;;;;18.47;63.78;94610.38;5073840;28;20186;-43
2023/05/25 02:25:30;;;;;;;5.23;4.53;;;;;;;18.46;63.79;94618.34;5071304;28;20190;-46
2023/05/25 02:27:58;;;;;;;5.07;4.47;;;;;;;18.43;63.63;94616.94;5070908;28;20669;-45
2023/05/25 02:30:25;;;;;;;5.00;4.50;;;;;;;18.42;63.66;94623.09;5071261;28;20218;-42
2023/05/25 02:32:52;;;;;;;5.20;4.70;;;;;;;18.33;63.41;94610.50;5071062;28;20186;-46
2023/05/25 02:35:19;;;;;;;6.63;4.90;;;;;;;18.36;63.60;94623.06;5071375;28;20236;-46
2023/05/25 02:37:46;;;;;;;5.13;4.63;;;;;;;18.36;63.55;94625.66;5070938;28;20186;-45
2023/05/25 02:40:13;;;;;;;5.93;4.53;;;;;;;18.34;63.54;94633.59;5070998;28;20642;-45
2023/05/25 02:42:40;;;;;;;4.87;4.37;;;;;;;18.29;63.49;94628.19;5070369;28;20183;-43
2023/05/25 02:45:10;;;;;;;5.10;4.53;;;;;;;18.30;63.57;94640.13;5070689;28;20194;-45
2023/05/25 02:47:37;;;;;;;5.23;4.83;;;;;;;18.28;63.53;94640.31;5070763;28;20228;-44
2023/05/25 02:50:05;;;;;;;7.73;4.90;;;;;;;18.26;63.66;94631.13;5070842;28;20238;-46
2023/05/25 02:52:32;;;;;;;4.53;3.93;;;;;;;18.19;63.51;94625.91;5070533;28;20661;-45
2023/05/25 02:54:58;;;;;;;5.13;4.63;;;;;;;18.22;63.50;94641.09;5070763;28;20198;-46
2023/05/25 02:57:25;;;;;;;5.50;4.50;;;;;;;18.24;63.58;94643.47;5070768;28;20194;-43
2023/05/25 02:59:52;;;;;;;4.67;4.27;;;;;;;18.23;63.55;94644.47;5070793;28;20186;-44
2023/05/25 03:02:24;;;;;;;5.53;4.33;;;;;;;18.21;63.44;94647.22;5070466;28;20273;-46
2023/05/25 03:04:52;;;;;;;7.80;3.87;;;;;;;18.18;63.46;94636.47;5071897;28;20202;-46
2023/05/25 03:07:19;;;;;;;4.93;4.33;;;;;;;18.22;63.47;94641.09;5070545;28;20198;-45
2023/05/25 03:09:46;;;;;;;5.43;4.43;;;;;;;18.23;63.46;94644.47;5070257;28;20632;-45
2023/05/25 03:12:12;;;;;;;4.43;4.00;;;;;;;18.12;63.42;94632.00;5070442;28;20903;-41
2023/05/25 03:14:39;;;;;;;5.00;4.27;;;;;;;18.25;63.46;94645.88;5070679;28;20182;-46
2023/05/25 03:17:06;;;;;;;3.90;3.50;;;;;;;18.27;63.38;94651.69;5070590;28;20281;-44
2023/05/25 03:19:34;;;;;;;5.40;4.23;;;;;;;18.29;63.34;94646.31;5070240;28;20247;-45
2023/05/25 03:22:02;;;;;;;5.53;4.53;;;;;;;18.32;63.28;94647.72;5070318;28;20217;-46
2023/05/25 03:24:29;;;;;;;4.30;3.90;;;;;;;18.36;63.06;94654.13;5074094;28;20191;-45
2023/05/25 03:26:56;;;;;;;5.53;4.57;;;;;;;18.39;63.10;94659.72;5074007;28;20233;-45
2023/05/25 03:29:23;;;;;;;4.47;4.07;;;;;;;18.33;62.97;94639.75;5070551;28;20205;-45
2023/05/25 03:31:50;;;;;;;5.33;4.20;;;;;;;18.48;62.93;94656.03;5070339;28;20222;-45
2023/05/25 03:34:16;;;;;;;5.13;4.57;;;;;;;18.53;62.72;94660.66;5071880;28;20235;-44
2023/05/25 03:36:46;;;;;;;5.73;4.67;;;;;;;18.59;62.69;94661.69;5074146;28;20324;-45
2023/05/25 03:39:13;;;;;;;6.57;4.30;;;;;;;18.64;62.54;94662.72;5073009;28;20183;-44
2023/05/25 03:41:41;;;;;;;4.97;4.13;;;;;;;18.71;62.60;94666.19;5071484;28;20194;-45
2023/05/25 03:44:09;;;;;;;4.90;4.40;;;;;;;18.76;62.46;94660.44;5070137;28;20583;-46
2023/05/25 03:46:36;;;;;;;8.43;4.53;;;;;;;18.84;62.36;94662.09;5070238;28;20200;-46
2023/05/25 03:49:03;;;;;;;5.20;4.30;;;;;;;18.89;62.29;94657.16;5069469;28;20530;-45
2023/05/25 03:51:30;;;;;;;6.27;4.43;;;;;;;19.00;62.06;94662.63;5069769;28;20245;-44
2023/05/25 03:53:58;;;;;;;5.53;4.73;;;;;;;19.09;62.03;94668.44;5069711;28;20185;-45
2023/05/25 03:56:25;;;;;;;6.17;4.40;;;;;;;19.18;61.55;94671.69;5070055;28;20315;-45
2023/05/25 03:58:52;;;;;;;5.00;4.60;;;;;;;19.27;61.67;94670.53;5074474;28;20197;-45
2023/05/25 04:01:18;;;;;;;8.47;4.57;;;;;;;19.36;61.37;94671.97;5072066;28;20189;-47
2023/05/25 04:03:45;;;;;;;5.10;4.60;;;;;;;19.51;61.16;94674.41;5071739;28;20252;-46
2023/05/25 04:06:12;;;;;;;7.93;4.60;;;;;;;19.62;61.00;94675.72;5069336;28;20194;-46
2023/05/25 04:08:39;;;;;;;6.00;4.07;;;;;;;19.78;60.70;94675.38;5069571;28;20255;-44
2023/05/25 04:11:08;;;;;;;6.53;4.63;;;;;;;19.91;60.47;94683.19;5069119;28;20252;-45
2023/05/25 04:13:35;;;;;;;6.10;4.87;;;;;;;20.05;60.12;94676.25;5069391;28;20277;-46
2023/05/25 04:16:02;;;;;;;5.77;4.37;;;;;;;20.22;60.08;94680.06;5069226;28;20190;-46
2023/05/25 04:18:29;;;;;;;6.47;4.23;;;;;;;20.36;59.69;94687.88;5069705;28;20244;-44
2023/05/25 04:20:56;;;;;;;5.33;4.73;;;;;;;20.49;59.66;94693.91;5069406;28;20204;-47
2023/05/25 04:23:23;;;;;;;5.87;4.50;;;;;;;20.62;59.24;94695.72;5069404;28;20194;-46
2023/05/25 04:25:50;;;;;;;5.57;4.60;;;;;;;20.73;59.36;94689.16;5068854;28;20263;-45
2023/05/25 04:28:19;;;;;;;7.10;4.78;;;;;;;20.85;59.03;94684.91;5069549;28;20253;-44
2023/05/25 04:30:46;;;;;;;7.97;4.22;;;;;;;20.99;58.92;94690.94;5068788;28;20214;-46
2023/05/25 04:33:13;;;;;;;5.60;4.00;;;;;;;20.98;58.77;94673.69;5075479;28;20685;-44
2023/05/25 04:35:40;;;;;;;5.80;4.30;;;;;;;21.32;58.35;94698.69;5076657;28;20535;-47
2023/05/25 04:38:07;;;;;;;4.60;4.20;;;;;;;21.51;57.88;94707.47;5076815;28;20641;-46
2023/05/25 04:40:34;;;;;;;5.75;4.22;;;;;;;21.68;57.54;94711.19;5075655;28;20198;-44
2023/05/25 04:43:02;;;;;;;5.93;5.13;;;;;;;21.85;57.27;94713.31;5075618;28;20182;-45
2023/05/25 04:45:31;;;;;;;6.63;4.72;;;;;;;22.02;57.26;94711.84;5075734;28;20677;-46
2023/05/25 04:48:00;;;;;;;4.75;4.25;;;;;;;22.21;56.91;94708.38;5075546;28;20186;-46
2023/05/25 04:50:27;;;;;;;7.82;4.75;;;;;;;22.37;56.63;94703.69;5075441;28;20317;-45
2023/05/25 04:52:54;;;;;;;7.43;4.30;;;;;;;22.62;56.40;94709.72;5075850;28;20214;-46
2023/05/25 04:55:21;;;;;;;5.90;4.65;;;;;;;22.87;55.75;94699.28;5075804;28;20641;-45
2023/05/25 04:57:47;;;;;;;8.00;4.55;;;;;;;23.10;55.56;94706.56;5075510;28;20239;-46
2023/05/25 05:00:15;;;;;;;4.85;4.28;;;;;;;23.25;55.35;94695.78;5077258;28;20182;-46
2023/05/25 05:02:43;;;;;;;8.05;4.25;;;;;;;23.38;55.30;94697.47;5077964;28;20191;-46
2023/05/25 05:05:10;;;;;;;4.70;4.22;;;;;;;23.57;55.09;94699.03;5076000;28;20213;-45
2023/05/25 05:07:38;;;;;;;7.75;4.65;;;;;;;23.86;55.10;94694.13;5075676;28;20569;-43
2023/05/25 05:10:05;;;;;;;9.75;3.92;;;;;;;24.35;54.76;94692.25;5076301;28;20182;-44
2023/05/25 05:12:33;;;;;;;5.18;4.38;;;;;;;24.84;54.30;94675.47;5076020;28;20587;-45
2023/05/25 05:15:00;;;;;;;8.25;4.78;;;;;;;25.59;53.98;94695.69;5075332;28;20275;-45
2023/05/25 05:17:29;;;;;;;6.80;4.63;;;;;;;26.24;53.13;94695.38;5075437;28;20186;-45
2023/05/25 05:19:57;;;;;;;5.88;4.00;;;;;;;26.76;51.96;94658.50;5075121;28;20580;-45
2023/05/25 05:22:24;;;;;;;5.18;4.35;;;;;;;27.73;51.38;94701.16;5075939;28;20195;-45
2023/05/25 05:24:51;;;;;;;5.05;3.67;;;;;;;28.52;50.47;94705.94;5075955;28;20190;-43
2023/05/25 05:27:17;;;;;;;9.65;4.35;;;;;;;29.33;49.74;94700.53;5075641;28;20229;-44
2023/05/25 05:29:44;;;;;;;4.78;4.03;;;;;;;30.14;48.94;94697.53;5079075;28;20195;-47
2023/05/25 05:32:11;;;;;;;3.70;3.22;;;;;;;31.00;47.82;94709.25;5075987;28;20718;-46
2023/05/25 05:34:38;;;;;;;4.45;3.67;;;;;;;31.78;46.76;94708.88;5075635;28;20182;-46
2023/05/25 05:37:06;;;;;;;4.78;3.17;;;;;;;32.57;45.85;94717.78;5074999;28;20179;-46
2023/05/25 05:39:33;;;;;;;4.05;3.35;;;;;;;33.21;44.92;94723.94;5075082;28;20205;-46
2023/05/25 05:42:00;;;;;;;5.07;3.10;;;;;;;33.76;44.04;94719.13;5074461;28;20198;-45
2023/05/25 05:44:27;;;;;;;5.28;2.95;;;;;;;34.31;43.72;94724.06;5055836;28;20744;-45
2023/05/25 05:46:58;;;;;;;5.18;2.72;;;;;;;34.76;42.75;94717.34;5054787;28;20380;-47
2023/05/25 05:49:25;;;;;;;4.82;2.70;;;;;;;35.28;42.35;94725.28;5072171;28;20636;-47
2023/05/25 05:51:52;;;;;;;3.30;3.00;;;;;;;35.62;41.64;94719.66;5072103;28;20609;-45
2023/05/25 05:54:20;;;;;;;3.00;2.72;;;;;;;35.94;41.08;94730.22;5061164;28;20682;-46
2023/05/25 05:56:47;;;;;;;4.43;3.30;;;;;;;36.32;40.41;94738.00;5069232;28;20240;-45
2023/05/25 05:59:14;;;;;;;5.50;3.00;;;;;;;36.65;39.79;94732.50;5070219;28;20193;-45
2023/05/25 06:01:41;;;;;;;4.05;2.67;;;;;;;36.85;38.48;94737.34;5068111;28;20247;-46
2023/05/25 06:04:09;;;;;;;4.90;3.17;;;;;;;36.60;39.36;94741.38;5070365;28;20208;-45
2023/05/25 06:06:36;;;;;;;11.00;3.47;;;;;;;36.32;39.96;94738.00;5070396;28;20202;-44
2023/05/25 06:09:05;;;;;;;6.20;3.08;;;;;;;36.09;39.96;94734.44;5069921;28;20194;-44
2023/05/25 06:11:35;;;;;;;3.80;2.97;;;;;;;35.93;40.60;94730.50;5070262;28;20202;-44
2023/05/25 06:14:02;;;;;;;2.70;2.42;;;;;;;35.77;40.89;94730.00;5070878;28;20269;-45
2023/05/25 06:16:29;;;;;;;4.18;3.17;;;;;;;35.69;41.02;94730.69;5067760;28;20214;-45
2023/05/25 06:18:56;;;;;;;8.43;2.80;;;;;;;35.62;41.19;94738.28;5067489;28;20243;-46
2023/05/25 06:21:23;;;;;;;6.38;2.80;;;;;;;35.56;41.37;94728.81;5069658;28;20573;-45
2023/05/25 06:23:50;;;;;;;4.97;3.00;;;;;;;35.56;41.31;94734.94;5069976;28;20216;-43
2023/05/25 06:26:16;;;;;;;5.88;3.03;;;;;;;35.56;41.33;94739.47;5070399;28;20646;-44
2023/05/25 06:28:46;;;;;;;5.38;2.85;;;;;;;35.63;41.46;94743.31;5069432;28;20218;-45
2023/05/25 06:31:13;;;;;;;3.08;2.60;;;;;;;35.71;41.25;94733.06;5069735;28;20658;-45
2023/05/25 06:33:40;;;;;;;5.88;3.13;;;;;;;35.77;41.11;94738.00;5069486;28;20190;-48
2023/05/25 06:36:07;;;;;;;4.05;3.40;;;;;;;35.81;40.61;94739.00;5070020;28;20190;-44
2023/05/25 06:38:34;;;;;;;8.32;5.60;;;;;;;35.58;34.89;94735.44;5069133;28;20182;-46
2023/05/25 06:41:03;;;;;;;12.85;5.10;;;;;;;35.47;35.52;94734.03;5069361;28;20187;-46
2023/05/25 06:43:31;;;;;;;4.70;3.78;;;;;;;35.49;37.11;94744.38;5069024;28;20186;-44
2023/05/25 06:45:59;;;;;;;6.72;4.80;;;;;;;35.39;36.32;94732.81;5069390;28;20283;-44
2023/05/25 06:48:26;;;;;;;8.75;4.20;;;;;;;35.47;36.53;94747.34;5069918;28;20190;-44
2023/05/25 06:50:53;;;;;;;6.95;4.35;;;;;;;35.43;37.15;94744.44;5069407;28;20198;-46
2023/05/25 06:53:20;;;;;;;5.70;4.30;;;;;;;35.44;37.79;94747.88;5069279;28;20182;-45
2023/05/25 06:55:47;;;;;;;9.95;4.18;;;;;;;35.46;38.05;94748.41;5067889;28;20210;-46
2023/05/25 06:58:13;;;;;;;5.30;4.38;;;;;;;35.50;37.27;94749.41;5068911;28;20190;-44
2023/05/25 07:00:40;;;;;;;7.63;3.88;;;;;;;35.55;37.52;94740.56;5068746;28;20198;-45
2023/05/25 07:03:08;;;;;;;8.20;4.28;;;;;;;35.61;37.44;94745.47;5069238;28;20604;-46
2023/05/25 07:05:35;;;;;;;4.45;3.80;;;;;;;35.63;37.23;94743.31;5069124;28;20297;-45
2023/05/25 07:08:02;;;;;;;6.80;3.80;;;;;;;35.61;37.50;94750.00;5069275;28;20178;-45
2023/05/25 07:10:29;;;;;;;4.25;3.85;;;;;;;35.60;37.56;94743.91;5069015;28;20604;-46
2023/05/25 07:12:55;;;;;;;10.25;4.55;;;;;;;35.61;37.29;94744.69;5068805;28;20232;-45
2023/05/25 07:15:22;;;;;;;6.55;3.72;;;;;;;35.65;37.23;94738.47;5068383;28;20186;-45
2023/05/25 07:17:49;;;;;;;6.68;3.97;;;;;;;35.72;37.12;94737.31;5068691;28;20671;-45
2023/05/25 07:20:18;;;;;;;5.50;3.40;;;;;;;35.75;36.88;94737.50;5069150;28;20192;-45
2023/05/25 07:22:47;;;;;;;4.25;3.85;;;;;;;35.80;36.84;94734.75;5069058;28;20205;-44
2023/05/25 07:25:14;;;;;;;3.38;3.08;;;;;;;35.83;36.99;94741.34;5068429;28;20183;-43
2023/05/25 07:27:42;;;;;;;4.55;3.40;;;;;;;35.76;36.88;94740.97;5069018;28;20260;-45
2023/05/25 07:30:10;;;;;;;6.00;3.97;;;;;;;35.69;37.27;94744.78;5068631;28;20218;-48
2023/05/25 07:32:37;;;;;;;13.18;3.63;;;;;;;35.72;36.97;94750.63;5068512;28;20214;-44
2023/05/25 07:35:04;;;;;;;4.00;3.47;;;;;;;35.76;36.97;94749.75;5068622;28;20205;-46
2023/05/25 07:37:32;;;;;;;6.22;3.47;;;;;;;35.85;36.61;94763.16;5068744;28;20197;-45
2023/05/25 07:40:00;;;;;;;7.68;3.72;;;;;;;35.79;36.70;94761.66;5067891;28;20244;-44
2023/05/25 07:42:32;;;;;;;5.65;3.53;;;;;;;35.55;37.21;94756.53;5068820;28;20220;-48
2023/05/25 07:45:00;;;;;;;5.85;3.50;;;;;;;35.23;37.80;94750.09;5067965;28;20198;-45
2023/05/25 07:47:27;;;;;;;4.95;3.20;;;;;;;35.03;37.81;94761.88;5068903;28;20268;-44
2023/05/25 07:49:54;;;;;;;5.70;3.40;;;;;;;34.69;37.26;94762.09;5069087;28;20197;-46
2023/05/25 07:52:21;;;;;;;4.43;3.40;;;;;;;34.25;38.56;94752.56;5067459;28;20202;-44
2023/05/25 07:54:49;;;;;;;4.65;3.13;;;;;;;33.82;37.49;94741.91;5068059;28;20566;-45
2023/05/25 07:57:16;;;;;;;7.55;3.65;;;;;;;33.27;37.80;94741.38;5068084;28;20202;-46
2023/05/25 07:59:43;;;;;;;5.20;3.28;;;;;;;32.85;38.87;94749.88;5068257;28;20190;-44
2023/05/25 08:02:10;;;;;;;5.47;3.80;;;;;;;32.34;40.05;94745.69;5068152;28;20657;-45
2023/05/25 08:04:37;;;;;;;7.88;3.25;;;;;;;32.01;40.26;94752.44;5068710;28;20267;-46
2023/05/25 08:07:04;;;;;;;7.15;3.50;;;;;;;31.70;41.19;94762.31;5067233;28;20354;-46
2023/05/25 08:09:31;;;;;;;7.05;3.28;;;;;;;31.38;41.07;94760.78;5068073;28;20252;-45
2023/05/25 08:12:00;;;;;;;7.40;3.15;;;;;;;31.08;41.38;94764.19;5068191;28;20206;-45
2023/05/25 08:14:26;;;;;;;6.10;2.80;;;;;;;30.76;40.81;94769.72;5067587;28;20663;-44
2023/05/25 08:16:53;;;;;;;3.35;2.97;;;;;;;30.39;40.39;94772.50;5068104;28;20201;-45
2023/05/25 08:19:20;;;;;;;6.72;3.80;;;;;;;30.02;41.42;94785.81;5068311;28;20186;-44
2023/05/25 08:21:47;;;;;;;6.97;2.95;;;;;;;29.66;42.55;94789.06;5068161;28;20285;-45
2023/05/25 08:24:14;;;;;;;5.65;3.65;;;;;;;29.36;42.77;94794.91;5068340;28;20205;-45
2023/05/25 08:26:42;;;;;;;4.32;3.10;;;;;;;29.06;43.42;94803.34;5067874;28;20201;-45
2023/05/25 08:29:10;;;;;;;7.68;3.45;;;;;;;28.76;43.32;94811.75;5067870;28;20657;-45
2023/05/25 08:31:36;;;;;;;4.82;3.40;;;;;;;28.47;43.03;94809.31;5067644;28;20645;-43
2023/05/25 08:34:03;;;;;;;6.72;3.13;;;;;;;27.85;42.19;94791.19;5067588;28;20623;-44
2023/05/25 08:36:32;;;;;;;5.97;3.20;;;;;;;27.67;43.23;94812.44;5062494;28;20210;-44
2023/05/25 08:39:00;;;;;;;8.98;3.10;;;;;;;27.43;44.26;94819.72;5065272;28;20193;-45
2023/05/25 08:41:26;;;;;;;6.78;3.25;;;;;;;27.18;45.08;94812.25;5065485;28;20194;-43
2023/05/25 08:43:53;;;;;;;5.68;3.33;;;;;;;27.05;45.53;94820.41;5065326;28;20798;-46
2023/05/25 08:46:29;;;;;;;4.80;3.13;;;;;;;26.88;46.72;94823.78;5065891;28;20301;-44
2023/05/25 08:49:00;;;;;;;3.97;3.58;;;;;;;26.69;46.95;94823.19;5062867;28;20251;-42
2023/05/25 08:51:31;;;;;;;5.35;4.32;;;;;;;26.53;47.48;94818.69;5064692;28;20188;-45
2023/05/25 08:54:04;;;;;;;5.95;3.28;;;;;;;26.39;47.94;94825.22;5065825;28;20190;-44
2023/05/25 08:56:35;;;;;;;5.57;3.35;;;;;;;25.82;48.86;94760.41;5065728;28;20194;-43
2023/05/25 08:59:08;;;;;;;3.42;3.13;;;;;;;26.16;48.98;94832.09;5065019;28;20259;-44
2023/05/25 09:01:41;;;;;;;6.18;3.63;;;;;;;26.06;49.08;94838.97;5065339;28;20639;-43
2023/05/25 09:04:08;;;;;;;8.50;3.33;;;;;;;25.94;49.72;94847.63;5065359;28;20688;-44
2023/05/25 09:06:37;;;;;;;5.03;3.17;;;;;;;25.87;49.79;94846.97;5064779;28;20186;-42
2023/05/25 09:09:04;;;;;;;4.95;3.17;;;;;;;25.76;50.16;94850.34;5065493;28;20280;-43
2023/05/25 09:11:32;;;;;;;5.78;3.35;;;;;;;25.68;50.52;94843.63;5064707;28;20183;-44
2023/05/25 09:13:59;;;;;;;4.13;3.17;;;;;;;25.60;50.38;94851.81;5064836;28;20252;-44
2023/05/25 09:16:26;;;;;;;3.85;3.50;;;;;;;25.53;50.50;94853.75;5065227;28;20649;-46
2023/05/25 09:18:55;;;;;;;3.80;3.35;;;;;;;25.47;50.68;94852.03;5066471;28;20214;-43
2023/05/25 09:21:22;;;;;;;3.45;3.15;;;;;;;25.40;51.25;94854.78;5068624;28;20194;-43
2023/05/25 09:23:50;;;;;;;4.97;3.67;;;;;;;25.32;50.95;94839.38;5068586;28;20201;-44
2023/05/25 09:26:16;;;;;;;3.67;3.30;;;;;;;25.32;51.19;94841.22;5068491;28;20183;-46
2023/05/25 09:28:45;;;;;;;4.57;3.60;;;;;;;25.26;51.42;94843.72;5068313;28;20257;-42
2023/05/25 09:31:12;;;;;;;4.03;3.30;;;;;;;25.26;51.56;94843.72;5068895;28;20194;-44
2023/05/25 09:33:39;;;;;;;5.40;3.30;;;;;;;25.19;51.47;94832.53;5068162;28;20221;-43
2023/05/25 09:36:08;;;;;;;3.08;2.72;;;;;;;25.24;51.79;94845.75;5067978;28;20182;-46
2023/05/25 09:38:36;;;;;;;4.82;2.95;;;;;;;25.25;51.74;94831.63;5069134;28;20228;-47
2023/05/25 09:41:04;;;;;;;3.67;3.17;;;;;;;25.26;51.49;94824.59;5070314;28;20565;-44
2023/05/25 09:43:32;;;;;;;4.05;3.13;;;;;;;25.27;51.77;94821.75;5069777;28;20195;-46
2023/05/25 09:45:59;;;;;;;4.03;2.88;;;;;;;25.27;51.72;94811.28;5068407;28;20202;-44
2023/05/25 09:48:28;;;;;;;4.25;3.60;;;;;;;25.39;51.68;94821.75;5068884;28;20298;-45
2023/05/25 09:50:56;;;;;;;3.42;2.83;;;;;;;25.48;51.95;94822.22;5068116;28;20198;-46
2023/05/25 09:53:24;;;;;;;7.78;3.33;;;;;;;25.57;51.87;94826.09;5069175;28;20218;-45
2023/05/25 09:55:52;;;;;;;3.65;3.33;;;;;;;25.63;51.68;94809.47;5068954;28;20190;-44
2023/05/25 09:58:18;;;;;;;3.40;3.00;;;;;;;25.73;51.89;94809.69;5069144;28;20198;-43
2023/05/25 10:00:45;;;;;;;8.25;3.90;;;;;;;25.85;52.33;94811.53;5068637;28;20208;-46
2023/05/25 10:03:13;;;;;;;5.00;3.40;;;;;;;25.91;52.32;94806.16;5070197;28;20609;-46
2023/05/25 10:05:40;;;;;;;2.97;2.78;;;;;;;25.97;51.85;94802.63;5066486;28;20187;-46
2023/05/25 10:08:08;;;;;;;4.30;3.05;;;;;;;26.07;51.64;94806.47;5068620;28;20190;-43
2023/05/25 10:10:37;;;;;;;3.03;2.80;;;;;;;26.14;51.43;94807.94;5067818;28;20713;-45
2023/05/25 10:13:08;;;;;;;3.55;3.20;;;;;;;26.19;51.26;94799.38;5065460;28;20207;-42
2023/05/25 10:15:36;;;;;;;3.40;3.10;;;;;;;26.22;51.31;94797.09;5067415;28;20194;-44
2023/05/25 10:18:05;;;;;;;3.60;3.30;;;;;;;26.33;51.48;94792.03;5068048;28;20187;-45
2023/05/25 10:20:32;;;;;;;4.05;3.05;;;;;;;26.37;50.91;94793.97;5067270;28;20183;-44
2023/05/25 10:23:04;;;;;;;6.07;3.08;;;;;;;26.50;51.12;94800.78;5066998;28;20186;-49
2023/05/25 10:25:36;;;;;;;5.93;4.60;;;;;;;26.45;51.39;94769.22;5067805;28;20182;-44
2023/05/25 10:28:13;;;;;;;6.45;4.57;;;;;;;26.61;51.36;94784.22;5066912;28;20241;-44
2023/05/25 10:30:41;;;;;;;8.63;5.22;;;;;;;26.68;51.60;94784.84;5066609;28;20193;-43
2023/05/25 10:33:10;;;;;;;8.50;5.40;;;;;;;26.57;51.86;94761.31;5067218;28;20224;-45
2023/05/25 10:35:39;;;;;;;6.90;4.60;;;;;;;26.74;51.19;94772.63;5067127;28;20191;-44
2023/05/25 10:38:06;;;;;;;6.82;3.95;;;;;;;26.79;50.72;94774.56;5067295;28;20201;-44
2023/05/25 10:40:34;;;;;;;5.90;3.72;;;;;;;26.33;50.50;94700.25;5067496;28;20194;-45
2023/05/25 10:43:01;;;;;;;4.05;3.65;;;;;;;26.75;50.54;94759.28;5066900;28;20205;-44
2023/05/25 10:45:30;;;;;;;4.63;3.60;;;;;;;26.77;50.58;94766.94;5067120;28;20654;-46
2023/05/25 10:47:57;;;;;;;4.57;3.75;;;;;;;26.72;50.00;94748.44;5066549;28;20182;-46
2023/05/25 10:50:26;;;;;;;5.05;3.90;;;;;;;26.67;49.80;94745.75;5066336;28;20194;-44
2023/05/25 10:53:00;;;;;;;4.03;3.53;;;;;;;26.53;49.68;94737.38;5066467;28;20218;-43
2023/05/25 10:55:30;;;;;;;4.40;3.95;;;;;;;26.38;50.38;94737.06;5066994;28;20284;-44
2023/05/25 10:58:11;;;;;;;4.20;3.42;;;;;;;26.17;51.53;94726.22;5066560;28;20194;-45
2023/05/25 11:00:40;;;;;;;3.80;3.50;;;;;;;26.00;51.80;94736.66;5066470;28;20198;-44
2023/05/25 11:03:07;;;;;;;4.97;3.05;;;;;;;25.82;52.45;94722.88;5066915;28;20213;-43
2023/05/25 11:05:37;;;;;;;4.32;3.60;;;;;;;25.67;54.00;94721.53;5066539;28;20201;-44
2023/05/25 11:08:05;;;;;;;3.63;3.22;;;;;;;25.58;54.42;94720.28;5066500;28;20228;-43
2023/05/25 11:10:53;;;;;;;3.72;3.20;;;;;;;25.57;54.33;94723.94;5065913;28;20573;-44
2023/05/25 11:13:32;;;;;;;5.93;3.58;;;;;;;25.54;54.44;94719.16;5064331;28;20210;-42
2023/05/25 11:16:16;;;;;;;5.82;2.97;;;;;;;25.51;54.11;94714.38;5064842;28;20214;-45
2023/05/25 11:18:45;;;;;;;3.50;3.15;;;;;;;25.48;53.63;94712.22;5066076;28;20801;-44
2023/05/25 11:21:17;;;;;;;4.43;3.20;;;;;;;25.43;52.14;94705.06;5066204;28;20287;-42
2023/05/25 11:23:55;;;;;;;3.92;3.30;;;;;;;25.52;51.49;94727.25;5066070;28;20218;-45
2023/05/25 11:26:24;;;;;;;4.45;2.85;;;;;;;25.37;51.07;94719.06;5063212;28;20197;-45
2023/05/25 11:28:52;;;;;;;5.53;3.65;;;;;;;25.41;50.84;94727.25;5065736;28;20186;-44
2023/05/25 11:31:29;;;;;;;2.90;2.70;;;;;;;25.38;50.45;94728.50;5064310;28;20225;-44
2023/05/25 11:33:59;;;;;;;3.85;3.13;;;;;;;25.38;51.86;94732.94;5065587;28;20609;-44
2023/05/25 11:36:30;;;;;;;3.50;2.97;;;;;;;25.34;52.73;94723.94;5066416;28;20216;-46
2023/05/25 11:39:00;;;;;;;4.97;3.15;;;;;;;25.32;52.09;94721.56;5063311;28;20198;-45